Time;durP1;ratioP1;P1;durP2;ratioP2;P2;SDS_P1;SDS_P2;PMS_P1;PMS_P2;Temp;Humidity;BMP_temperature;BMP_pressure;BME280_temperature;BME280_humidity;BME280_pressure;Samples;Min_cycle;Max_cycle;Signal;HPM_P1;HPM_P2
2021/12/03 00:00:45;;;;;;;11.13;4.00;;;;;;;-0.01;79.76;98562.91;4083687;29;20532;-74
2021/12/03 00:03:12;;;;;;;13.40;4.77;;;;;;;-0.01;79.70;98567.31;4073886;29;22820;-74
2021/12/03 00:05:40;;;;;;;9.17;4.20;;;;;;;-0.01;80.02;98572.53;4080761;29;21640;-76
2021/12/03 00:08:07;;;;;;;14.03;4.40;;;;;;;0.01;80.12;98578.50;4074204;29;20235;-77
2021/12/03 00:10:36;;;;;;;10.67;4.80;;;;;;;0.02;79.88;98584.53;4079050;29;20253;-75
2021/12/03 00:13:04;;;;;;;13.23;4.80;;;;;;;-0.04;80.34;98584.09;4086664;29;20318;-77
2021/12/03 00:15:31;;;;;;;12.43;4.40;;;;;;;0.00;80.33;98579.47;4076510;29;21788;-75
2021/12/03 00:17:57;;;;;;;16.07;4.27;;;;;;;-0.06;80.21;98575.53;4086285;29;21288;-75
2021/12/03 00:20:25;;;;;;;10.63;4.50;;;;;;;-0.05;80.61;98571.13;4090964;29;21458;-75
2021/12/03 00:22:54;;;;;;;10.10;4.10;;;;;;;-0.09;80.44;98567.94;4087059;29;22167;-73
2021/12/03 00:25:20;;;;;;;11.20;4.20;;;;;;;-0.11;80.62;98567.25;4073467;29;20241;-75
2021/12/03 00:27:47;;;;;;;12.30;4.40;;;;;;;-0.17;81.18;98567.72;4079926;29;20321;-75
2021/12/03 00:30:15;;;;;;;11.47;4.23;;;;;;;-0.19;81.34;98580.06;4087785;29;20236;-74
2021/12/03 00:32:43;;;;;;;15.57;5.03;;;;;;;-0.20;81.37;98577.59;4082795;29;21548;-76
2021/12/03 00:35:10;;;;;;;11.97;4.47;;;;;;;-0.20;80.99;98577.59;4082136;29;20249;-74
2021/12/03 00:37:39;;;;;;;11.47;4.40;;;;;;;-0.17;80.79;98587.81;4082887;29;20238;-75
2021/12/03 00:40:08;;;;;;;11.67;4.80;;;;;;;-0.11;80.65;98588.16;4082116;29;20786;-75
2021/12/03 00:42:35;;;;;;;16.97;5.33;;;;;;;-0.12;81.21;98589.09;4083639;29;21207;-77
2021/12/03 00:45:03;;;;;;;15.00;4.63;;;;;;;-0.18;81.05;98597.44;4089818;29;20234;-77
2021/12/03 00:47:29;;;;;;;17.67;4.73;;;;;;;-0.19;81.10;98611.44;4080782;29;20270;-75
2021/12/03 00:49:56;;;;;;;12.03;4.50;;;;;;;-0.19;81.03;98610.63;4082452;29;20258;-75
2021/12/03 00:52:23;;;;;;;11.97;4.37;;;;;;;-0.15;81.29;98623.31;4092312;29;23867;-75
2021/12/03 00:54:49;;;;;;;15.10;4.50;;;;;;;-0.14;81.06;98618.91;4086281;29;20570;-74
2021/12/03 00:57:16;;;;;;;12.07;4.03;;;;;;;-0.13;81.37;98620.59;4086812;29;20528;-74
2021/12/03 00:59:43;;;;;;;12.37;4.33;;;;;;;-0.22;81.32;98627.38;4084600;29;20572;-74
2021/12/03 01:02:10;;;;;;;11.50;3.93;;;;;;;-0.22;81.30;98627.38;4071806;29;20363;-75
2021/12/03 01:04:37;;;;;;;14.23;4.30;;;;;;;-0.22;81.95;98635.22;4090441;29;20413;-75
2021/12/03 01:07:03;;;;;;;9.60;4.00;;;;;;;-0.26;82.44;98637.25;4087295;29;25277;-75
2021/12/03 01:09:31;;;;;;;12.37;4.10;;;;;;;-0.24;82.12;98630.09;4087967;29;20282;-75
2021/12/03 01:11:59;;;;;;;7.60;3.70;;;;;;;-0.16;82.07;98631.31;4084748;29;22389;-74
2021/12/03 01:14:26;;;;;;;12.50;4.70;;;;;;;-0.16;82.07;98621.69;4072708;29;20685;-74
2021/12/03 01:16:53;;;;;;;11.53;4.40;;;;;;;-0.17;82.09;98625.22;4086530;29;20245;-75
2021/12/03 01:19:19;;;;;;;14.63;4.87;;;;;;;-0.14;81.94;98627.63;4085814;29;20302;-75
2021/12/03 01:21:47;;;;;;;9.17;4.30;;;;;;;-0.24;82.08;98627.50;4086041;29;20380;-77
2021/12/03 01:24:13;;;;;;;10.67;4.40;;;;;;;-0.23;82.14;98633.56;4092769;29;20407;-76
2021/12/03 01:26:41;;;;;;;11.07;3.97;;;;;;;-0.24;82.40;98639.72;4087882;29;20260;-76
2021/12/03 01:29:08;;;;;;;10.23;4.90;;;;;;;-0.27;81.88;98645.22;4082041;29;20236;-78
2021/12/03 01:31:34;;;;;;;15.20;4.90;;;;;;;-0.37;82.97;98641.66;4079624;29;20234;-77
2021/12/03 01:34:01;;;;;;;14.53;4.67;;;;;;;-0.27;82.47;98650.44;4086794;29;20242;-77
2021/12/03 01:36:28;;;;;;;13.43;5.13;;;;;;;-0.28;82.75;98651.38;4076681;29;20257;-74
2021/12/03 01:38:55;;;;;;;13.90;4.37;;;;;;;-0.28;82.92;98667.06;4089136;29;22543;-75
2021/12/03 01:41:22;;;;;;;12.97;4.90;;;;;;;-0.28;82.76;98661.81;4086472;29;20411;-75
2021/12/03 01:43:50;;;;;;;12.90;4.93;;;;;;;-0.31;82.87;98660.28;4075385;29;23151;-75
2021/12/03 01:46:19;;;;;;;12.70;4.63;;;;;;;-0.27;83.20;98672.16;4077776;29;20260;-74
2021/12/03 01:48:46;;;;;;;9.90;4.53;;;;;;;-0.23;83.30;98675.41;4093162;29;20242;-74
2021/12/03 01:51:12;;;;;;;10.67;4.10;;;;;;;-0.17;82.73;98669.66;4079657;29;20329;-75
2021/12/03 01:53:40;;;;;;;10.43;4.37;;;;;;;-0.18;83.11;98678.47;4089014;29;20242;-75
2021/12/03 01:56:12;;;;;;;10.87;4.63;;;;;;;-0.19;82.98;98674.19;4076307;29;23875;-74
2021/12/03 01:58:40;;;;;;;10.13;4.13;;;;;;;-0.18;82.89;98668.00;4084732;29;21144;-75
2021/12/03 02:01:10;;;;;;;16.83;5.20;;;;;;;-0.17;83.51;98667.03;4073268;29;20300;-75
2021/12/03 02:03:40;;;;;;;14.40;5.00;;;;;;;-0.18;83.50;98681.09;4078762;29;21310;-75
2021/12/03 02:06:08;;;;;;;11.93;5.27;;;;;;;-0.19;82.97;98675.97;4062735;29;20237;-75
2021/12/03 02:08:35;;;;;;;10.67;4.13;;;;;;;-0.22;83.02;98685.72;4072664;29;20245;-75
2021/12/03 02:11:03;;;;;;;13.70;5.03;;;;;;;-0.22;83.15;98685.72;4089673;29;21686;-74
2021/12/03 02:13:30;;;;;;;11.20;4.93;;;;;;;-0.26;83.83;98689.53;4077078;29;20240;-74
2021/12/03 02:15:57;;;;;;;11.90;4.73;;;;;;;-0.23;83.53;98688.47;4077994;29;20240;-76
2021/12/03 02:18:24;;;;;;;11.87;5.17;;;;;;;-0.22;83.88;98690.94;4076520;29;20282;-74
2021/12/03 02:20:54;;;;;;;10.83;4.53;;;;;;;-0.21;83.82;98694.41;4082247;29;20381;-75
2021/12/03 02:23:21;;;;;;;11.83;5.10;;;;;;;-0.25;83.93;98687.75;4084411;29;20973;-75
2021/12/03 02:25:48;;;;;;;13.73;4.87;;;;;;;-0.28;83.84;98687.97;4093682;29;20295;-76
2021/12/03 02:28:18;;;;;;;13.90;5.20;;;;;;;-0.41;84.40;98701.16;4073554;29;21597;-77
2021/12/03 02:30:47;;;;;;;10.67;4.77;;;;;;;-0.43;84.57;98711.72;4085040;29;21419;-75
2021/12/03 02:33:14;;;;;;;10.33;4.43;;;;;;;-0.47;85.23;98718.16;4080840;29;20639;-75
2021/12/03 02:35:43;;;;;;;14.70;5.27;;;;;;;-0.50;85.57;98718.38;4075702;29;20254;-76
2021/12/03 02:38:14;;;;;;;12.53;4.87;;;;;;;-0.51;85.79;98729.78;4085771;29;20540;-75
2021/12/03 02:40:43;;;;;;;10.13;5.17;;;;;;;-0.57;86.46;98729.41;4091831;29;20322;-76
2021/12/03 02:43:10;;;;;;;13.90;5.93;;;;;;;-0.55;86.03;98738.78;4090895;29;20233;-75
2021/12/03 02:45:37;;;;;;;11.40;4.67;;;;;;;-0.53;86.32;98736.06;4080604;29;20234;-74
2021/12/03 02:48:04;;;;;;;14.60;4.90;;;;;;;-0.54;87.04;98742.22;4076351;29;20233;-75
2021/12/03 02:50:31;;;;;;;14.17;5.23;;;;;;;-0.60;87.10;98743.53;4086166;29;20257;-76
2021/12/03 02:52:58;;;;;;;10.07;4.67;;;;;;;-0.57;87.56;98745.91;4092730;29;20422;-77
2021/12/03 02:55:25;;;;;;;11.67;4.83;;;;;;;-0.57;87.41;98750.31;4089173;29;21184;-76
2021/12/03 02:57:52;;;;;;;14.63;5.10;;;;;;;-0.57;87.05;98753.75;4089747;29;20443;-75
2021/12/03 03:00:22;;;;;;;11.00;5.30;;;;;;;-0.64;87.50;98758.59;4056345;29;26172;-74
2021/12/03 03:02:49;;;;;;;12.67;5.20;;;;;;;-0.69;88.11;98765.13;4073881;29;20252;-75
2021/12/03 03:05:17;;;;;;;14.07;5.83;;;;;;;-0.70;88.11;98764.31;4103702;29;20344;-74
2021/12/03 03:07:48;;;;;;;12.93;4.90;;;;;;;-0.77;88.83;98767.47;4091068;29;20785;-74
2021/12/03 03:10:19;;;;;;;11.20;5.43;;;;;;;-0.80;88.90;98772.94;4102593;29;21457;-75
2021/12/03 03:12:47;;;;;;;12.80;5.30;;;;;;;-0.81;89.10;98769.50;4077070;29;21765;-73
2021/12/03 03:15:14;;;;;;;14.73;5.80;;;;;;;-0.82;88.94;98773.06;4097915;29;20245;-73
2021/12/03 03:17:40;;;;;;;14.57;5.50;;;;;;;-0.89;89.20;98775.28;4092815;29;20245;-73
2021/12/03 03:20:08;;;;;;;13.63;5.83;;;;;;;-0.97;89.81;98777.63;4085860;29;20319;-74
2021/12/03 03:22:37;;;;;;;15.43;6.27;;;;;;;-0.98;90.18;98785.59;4088919;29;20325;-72
2021/12/03 03:25:06;;;;;;;17.30;6.20;;;;;;;-0.92;89.98;98785.13;4077284;29;20361;-72
2021/12/03 03:27:33;;;;;;;15.23;6.70;;;;;;;-0.96;90.72;98788.88;4089259;29;21977;-74
2021/12/03 03:30:00;;;;;;;13.90;6.53;;;;;;;-0.89;91.13;98795.31;4096197;29;20246;-74
2021/12/03 03:32:27;;;;;;;13.23;5.57;;;;;;;-0.85;90.78;98796.78;4077172;29;20553;-72
2021/12/03 03:34:54;;;;;;;12.33;5.87;;;;;;;-0.91;91.03;98800.69;4089618;29;21240;-73
2021/12/03 03:37:21;;;;;;;14.20;6.23;;;;;;;-0.88;90.95;98797.81;4091971;29;20697;-74
2021/12/03 03:39:47;;;;;;;15.23;6.13;;;;;;;-0.92;91.42;98814.66;4095610;29;20237;-72
2021/12/03 03:42:14;;;;;;;13.50;6.47;;;;;;;-0.97;91.06;98816.78;4091146;29;23514;-73
2021/12/03 03:44:41;;;;;;;13.43;5.83;;;;;;;-1.01;91.52;98822.34;4090676;29;20350;-73
2021/12/03 03:47:08;;;;;;;15.20;5.93;;;;;;;-0.99;91.92;98830.88;4069743;29;20301;-75
2021/12/03 03:49:35;;;;;;;13.33;6.13;;;;;;;-1.03;91.75;98830.28;4094580;29;20232;-74
2021/12/03 03:52:03;;;;;;;16.33;6.43;;;;;;;-1.08;92.02;98840.22;4111194;29;20229;-73
2021/12/03 03:54:30;;;;;;;14.17;6.20;;;;;;;-1.09;92.54;98838.56;4078927;29;20226;-73
2021/12/03 03:56:56;;;;;;;18.40;6.23;;;;;;;-1.03;92.03;98834.66;4084206;29;20237;-74
2021/12/03 03:59:23;;;;;;;15.87;6.43;;;;;;;-1.08;92.47;98841.06;4099563;29;20307;-71
2021/12/03 04:01:51;;;;;;;16.17;6.53;;;;;;;-1.10;92.90;98842.09;4093501;29;20630;-73
2021/12/03 04:04:18;;;;;;;13.33;7.23;;;;;;;-1.00;92.81;98834.47;4091625;29;20258;-72
2021/12/03 04:06:45;;;;;;;19.70;7.00;;;;;;;-0.92;92.50;98839.94;4095145;29;20244;-74
2021/12/03 04:09:12;;;;;;;19.53;7.63;;;;;;;-1.02;92.80;98841.56;4078833;29;20545;-72
2021/12/03 04:11:39;;;;;;;15.77;7.20;;;;;;;-1.02;93.29;98833.72;4091802;29;21245;-73
2021/12/03 04:14:10;;;;;;;19.50;7.63;;;;;;;-1.00;92.95;98839.69;4070058;29;20301;-75
2021/12/03 04:16:36;;;;;;;16.97;6.70;;;;;;;-0.99;93.02;98841.34;4103293;29;20242;-74
2021/12/03 04:19:03;;;;;;;14.50;6.90;;;;;;;-1.07;93.58;98847.94;4076139;29;20258;-72
2021/12/03 04:21:29;;;;;;;15.83;6.77;;;;;;;-1.07;93.37;98844.50;4102694;29;20418;-72
2021/12/03 04:23:56;;;;;;;16.70;6.93;;;;;;;-1.05;93.83;98842.63;4086148;29;25251;-73
2021/12/03 04:26:23;;;;;;;14.93;6.37;;;;;;;-1.10;94.20;98850.78;4080492;29;20238;-72
2021/12/03 04:28:49;;;;;;;17.13;7.43;;;;;;;-0.98;94.15;98845.63;4092855;29;20240;-73
2021/12/03 04:31:16;;;;;;;14.83;6.73;;;;;;;-1.03;93.79;98851.19;4086111;29;20378;-72
2021/12/03 04:33:43;;;;;;;14.53;6.60;;;;;;;-1.08;94.10;98853.25;4086844;29;22843;-72
2021/12/03 04:36:10;;;;;;;19.20;7.60;;;;;;;-1.08;95.18;98853.25;4091387;29;22987;-71
2021/12/03 04:38:36;;;;;;;14.40;6.90;;;;;;;-0.97;94.48;98861.16;4089202;29;20537;-72
2021/12/03 04:41:03;;;;;;;16.63;7.43;;;;;;;-0.96;94.86;98857.63;4088218;29;20234;-72
2021/12/03 04:43:30;;;;;;;14.23;7.30;;;;;;;-0.88;94.21;98860.50;4090751;29;21204;-72
2021/12/03 04:45:57;;;;;;;18.27;7.67;;;;;;;-0.88;94.00;98870.13;4083858;29;20711;-74
2021/12/03 04:48:24;;;;;;;18.00;7.40;;;;;;;-0.92;94.55;98877.31;4077008;29;20287;-74
2021/12/03 04:50:52;;;;;;;16.87;7.50;;;;;;;-0.81;94.29;98871.34;4094952;29;21251;-73
2021/12/03 04:53:19;;;;;;;13.63;7.07;;;;;;;-0.75;93.87;98875.25;4082210;29;20242;-73
2021/12/03 04:55:47;;;;;;;13.00;6.90;;;;;;;-0.77;93.43;98871.94;4080253;29;20247;-74
2021/12/03 04:58:14;;;;;;;13.83;7.30;;;;;;;-0.75;92.26;98873.50;4106246;29;20275;-73
2021/12/03 05:00:47;;;;;;;18.97;7.97;;;;;;;-0.70;91.37;98878.41;4088155;29;25761;-72
2021/12/03 05:03:14;;;;;;;13.00;7.37;;;;;;;-0.65;90.08;98882.34;4074897;29;20289;-72
2021/12/03 05:05:51;;;;;;;18.97;7.47;;;;;;;-0.62;89.40;98881.28;4083708;29;20243;-72
2021/12/03 05:08:17;;;;;;;15.40;8.07;;;;;;;-0.58;89.26;98887.94;4086280;29;21179;-72
2021/12/03 05:10:45;;;;;;;13.93;7.40;;;;;;;-0.52;89.33;98897.91;4080995;29;20245;-72
2021/12/03 05:13:20;;;;;;;15.47;7.70;;;;;;;-0.56;89.00;98899.13;4084674;29;20767;-73
2021/12/03 05:15:47;;;;;;;13.43;7.47;;;;;;;-0.47;88.78;98900.19;4065914;29;20514;-75
2021/12/03 05:18:16;;;;;;;15.53;6.77;;;;;;;-0.52;87.93;98903.16;4090384;29;20332;-73
2021/12/03 05:20:45;;;;;;;17.37;7.03;;;;;;;-0.53;87.95;98906.72;4087348;29;21535;-74
2021/12/03 05:23:13;;;;;;;14.23;6.40;;;;;;;-0.53;87.17;98911.94;4079437;29;20314;-75
2021/12/03 05:25:39;;;;;;;13.20;6.13;;;;;;;-0.52;84.55;98908.38;4084294;29;20333;-73
2021/12/03 05:28:06;;;;;;;9.67;5.40;;;;;;;-0.50;83.42;98922.16;4096514;29;20234;-75
2021/12/03 05:30:34;;;;;;;9.67;5.10;;;;;;;-0.51;79.57;98917.91;4097786;29;20249;-74
2021/12/03 05:33:01;;;;;;;14.17;5.30;;;;;;;-0.47;77.32;98924.56;4084726;29;26467;-73
2021/12/03 05:35:28;;;;;;;8.30;4.53;;;;;;;-0.46;77.36;98933.25;4092283;29;21692;-74
2021/12/03 05:37:55;;;;;;;9.87;5.27;;;;;;;-0.40;77.46;98942.41;4088472;29;21640;-73
2021/12/03 05:40:21;;;;;;;9.63;5.23;;;;;;;-0.35;76.54;98943.75;4093755;29;20674;-74
2021/12/03 05:42:48;;;;;;;12.77;5.70;;;;;;;-0.34;76.77;98949.81;4085136;29;20269;-74
2021/12/03 05:45:27;;;;;;;13.83;5.57;;;;;;;-0.30;76.83;98948.63;4074504;29;23066;-73
2021/12/03 05:47:55;;;;;;;12.80;6.47;;;;;;;-0.25;78.20;98954.34;4080521;29;20311;-73
2021/12/03 05:50:22;;;;;;;9.70;5.40;;;;;;;-0.29;81.93;98953.72;4085499;29;20399;-72
2021/12/03 05:52:50;;;;;;;13.43;6.27;;;;;;;-0.38;84.57;98961.41;4097360;29;21693;-73
2021/12/03 05:55:17;;;;;;;20.00;6.43;;;;;;;-0.41;86.01;98966.88;4069594;29;22801;-73
2021/12/03 05:57:45;;;;;;;13.47;6.07;;;;;;;-0.48;86.75;98961.25;4086531;29;21827;-73
2021/12/03 06:00:19;;;;;;;10.20;5.83;;;;;;;-0.51;86.27;98969.31;4071439;29;20671;-74
2021/12/03 06:02:45;;;;;;;10.83;4.70;;;;;;;-0.55;85.40;98963.47;4089563;29;21796;-75
2021/12/03 06:05:12;;;;;;;11.87;5.47;;;;;;;-0.57;85.48;98967.97;4077963;29;21052;-73
2021/12/03 06:07:39;;;;;;;9.50;5.33;;;;;;;-0.58;85.00;98962.88;4085050;29;20235;-73
2021/12/03 06:10:07;;;;;;;10.53;4.60;;;;;;;-0.61;84.86;98970.91;4079425;29;21309;-74
2021/12/03 06:12:33;;;;;;;8.80;3.70;;;;;;;-0.73;83.91;98970.84;4092859;29;20238;-73
2021/12/03 06:15:00;;;;;;;6.67;3.87;;;;;;;-0.78;80.34;98966.91;4086125;29;20305;-74
2021/12/03 06:17:27;;;;;;;7.90;4.10;;;;;;;-0.88;79.57;98967.56;4112603;29;21370;-75
2021/12/03 06:19:53;;;;;;;11.97;4.30;;;;;;;-0.92;80.52;98971.31;4071205;29;20268;-73
2021/12/03 06:22:20;;;;;;;7.90;4.03;;;;;;;-0.95;80.22;98974.16;4098741;29;20245;-73
2021/12/03 06:24:47;;;;;;;5.57;2.90;;;;;;;-1.01;78.93;98965.91;4092101;29;20241;-73
2021/12/03 06:27:13;;;;;;;7.47;3.47;;;;;;;-1.13;79.41;98973.66;4085752;29;20236;-74
2021/12/03 06:29:40;;;;;;;6.13;3.10;;;;;;;-1.17;80.32;98984.41;4077163;29;22558;-74
2021/12/03 06:32:10;;;;;;;7.30;3.57;;;;;;;-1.24;81.15;98975.34;4097975;29;20259;-74
2021/12/03 06:34:38;;;;;;;6.47;3.93;;;;;;;-1.27;81.60;98985.06;4077321;29;20241;-74
2021/12/03 06:37:04;;;;;;;6.97;4.07;;;;;;;-1.38;82.30;98987.59;4090197;29;20871;-74
2021/12/03 06:39:31;;;;;;;8.07;4.20;;;;;;;-1.35;83.08;98992.59;4089450;29;20226;-75
2021/12/03 06:41:58;;;;;;;8.67;4.67;;;;;;;-1.35;83.45;98997.81;4092686;29;22190;-72
2021/12/03 06:44:25;;;;;;;7.47;4.17;;;;;;;-1.44;83.65;99006.25;4081841;29;21073;-74
2021/12/03 06:46:53;;;;;;;10.27;4.70;;;;;;;-1.46;85.17;99010.75;4092056;29;20257;-74
2021/12/03 06:49:21;;;;;;;10.33;4.63;;;;;;;-1.40;85.73;99015.56;4074096;29;22490;-75
2021/12/03 06:51:49;;;;;;;7.70;4.63;;;;;;;-1.38;86.73;99024.13;4085915;29;22337;-74
2021/12/03 06:54:24;;;;;;;8.13;5.10;;;;;;;-1.27;86.82;99029.41;4082913;29;20237;-77
2021/12/03 06:56:52;;;;;;;14.00;5.57;;;;;;;-1.28;87.27;99029.53;4098842;29;21755;-79
2021/12/03 06:59:21;;;;;;;8.03;5.23;;;;;;;-1.23;86.59;99032.66;4099969;29;20316;-77
2021/12/03 07:01:48;;;;;;;12.83;5.90;;;;;;;-1.25;85.59;99038.94;4096978;29;20236;-76
2021/12/03 07:04:15;;;;;;;12.10;5.63;;;;;;;-1.24;85.63;99041.44;4107070;29;20406;-77
2021/12/03 07:06:42;;;;;;;10.27;6.23;;;;;;;-1.16;86.10;99051.34;4107366;29;21989;-76
2021/12/03 07:09:09;;;;;;;11.10;5.73;;;;;;;-1.14;86.13;99058.13;4097485;29;20324;-75
2021/12/03 07:11:36;;;;;;;9.93;5.27;;;;;;;-1.14;86.08;99047.69;4100470;29;20721;-77
2021/12/03 07:14:03;;;;;;;10.93;5.20;;;;;;;-1.15;85.09;99058.22;4095490;29;20233;-77
2021/12/03 07:16:30;;;;;;;8.43;4.80;;;;;;;-1.13;84.53;99059.78;4080178;29;20551;-76
2021/12/03 07:18:57;;;;;;;7.57;4.07;;;;;;;-1.13;84.62;99069.41;4092378;29;20335;-78
2021/12/03 07:21:25;;;;;;;9.73;5.17;;;;;;;-1.11;84.79;99070.97;4089686;29;22282;-75
2021/12/03 07:23:52;;;;;;;12.03;5.67;;;;;;;-1.04;85.19;99070.56;4090495;29;21643;-77
2021/12/03 07:26:21;;;;;;;11.47;5.77;;;;;;;-0.97;85.46;99070.03;4085661;29;22415;-79
2021/12/03 07:28:48;;;;;;;11.33;5.50;;;;;;;-1.01;85.82;99073.78;4110936;29;20235;-77
2021/12/03 07:31:14;;;;;;;13.13;5.60;;;;;;;-1.02;84.52;99077.34;4099607;29;22865;-76
2021/12/03 07:33:41;;;;;;;10.13;5.77;;;;;;;-0.98;83.66;99075.38;4099906;29;20232;-77
2021/12/03 07:36:08;;;;;;;11.10;5.77;;;;;;;-1.00;83.63;99079.88;4100912;29;20248;-78
2021/12/03 07:38:35;;;;;;;11.77;7.20;;;;;;;-0.94;83.93;99085.47;4086642;29;20241;-78
2021/12/03 07:41:03;;;;;;;13.50;6.97;;;;;;;-0.91;83.77;99089.69;4077573;29;20238;-76
2021/12/03 07:43:30;;;;;;;11.27;6.63;;;;;;;-0.97;84.31;99084.88;4091686;29;20241;-78
2021/12/03 07:45:57;;;;;;;12.50;7.13;;;;;;;-1.00;84.63;99088.53;4077314;29;22267;-78
2021/12/03 07:48:24;;;;;;;10.87;7.17;;;;;;;-0.92;84.66;99088.81;4108308;29;20234;-77
2021/12/03 07:50:52;;;;;;;13.43;7.07;;;;;;;-0.87;84.40;99094.59;4088786;29;21795;-78
2021/12/03 07:53:19;;;;;;;10.37;6.40;;;;;;;-0.89;84.04;99099.06;4082670;29;20301;-80
2021/12/03 07:55:48;;;;;;;10.07;6.23;;;;;;;-0.99;83.83;99098.00;4101174;29;20245;-79
2021/12/03 07:58:16;;;;;;;9.67;4.63;;;;;;;-0.97;82.24;99101.34;4094182;29;20430;-78
2021/12/03 08:00:44;;;;;;;9.80;4.60;;;;;;;-0.85;82.45;99100.50;4082121;29;21457;-78
2021/12/03 08:03:16;;;;;;;11.00;4.50;;;;;;;-0.86;82.05;99098.84;4092922;29;20908;-77
2021/12/03 08:05:45;;;;;;;9.67;5.07;;;;;;;-0.81;81.73;99102.94;4074642;29;20253;-78
2021/12/03 08:08:12;;;;;;;6.33;4.23;;;;;;;-0.76;81.52;99099.06;4089463;29;21811;-76
2021/12/03 08:10:40;;;;;;;7.10;4.13;;;;;;;-0.79;81.76;99101.06;4076694;29;21572;-79
2021/12/03 08:13:07;;;;;;;11.73;5.37;;;;;;;-0.74;81.76;99096.34;4069700;29;21570;-79
2021/12/03 08:15:37;;;;;;;8.17;4.83;;;;;;;-0.85;82.00;99103.13;4085099;29;20229;-78
2021/12/03 08:18:07;;;;;;;12.20;4.80;;;;;;;-0.82;82.64;99098.63;4132154;29;20936;-80
2021/12/03 08:20:34;;;;;;;11.67;4.70;;;;;;;-0.83;82.36;99094.38;4113269;29;21633;-78
2021/12/03 08:23:01;;;;;;;11.77;4.40;;;;;;;-0.80;82.04;99100.19;4096388;29;20740;-80
2021/12/03 08:25:29;;;;;;;15.40;4.77;;;;;;;-0.58;81.75;99107.41;4125180;29;21703;-78
2021/12/03 08:27:56;;;;;;;12.23;5.07;;;;;;;0.29;78.75;99094.22;4120972;29;20265;-81
2021/12/03 08:30:25;;;;;;;13.23;4.90;;;;;;;2.00;70.96;99111.63;4105840;29;20288;-80
2021/12/03 08:32:52;;;;;;;6.40;3.63;;;;;;;0.78;73.01;99106.28;4098811;29;20303;-78
2021/12/03 08:35:19;;;;;;;9.07;4.00;;;;;;;1.78;71.01;99103.78;4126603;29;21268;-82
2021/12/03 08:37:48;;;;;;;8.60;3.50;;;;;;;3.41;64.32;99111.38;4112450;29;20313;-83
2021/12/03 08:40:15;;;;;;;7.07;2.97;;;;;;;4.18;59.41;99111.56;4162393;29;22038;-78
2021/12/03 08:42:42;;;;;;;11.07;3.90;;;;;;;3.99;59.10;99112.38;4098337;29;20661;-77
2021/12/03 08:45:09;;;;;;;7.70;3.27;;;;;;;4.32;57.79;99122.69;4130209;29;20354;-77
2021/12/03 08:47:37;;;;;;;9.67;3.77;;;;;;;4.40;57.95;99121.03;4122441;29;20541;-81
2021/12/03 08:50:10;;;;;;;9.23;3.60;;;;;;;4.04;59.50;99101.44;4150962;29;20627;-78
2021/12/03 08:53:09;;;;;;;8.97;3.73;;;;;;;3.28;61.06;99101.91;4082152;29;20291;-78
2021/12/03 08:55:38;;;;;;;9.37;3.80;;;;;;;4.42;58.71;99105.06;4100029;29;20234;-78
2021/12/03 08:58:05;;;;;;;6.70;3.17;;;;;;;5.28;54.67;99105.09;4115030;29;20684;-84
2021/12/03 09:00:36;;;;;;;7.60;2.50;;;;;;;5.37;53.16;99109.50;4186856;29;20301;-86
2021/12/03 09:03:04;;;;;;;11.17;3.03;;;;;;;4.97;53.68;99115.84;4168658;29;22642;-80
2021/12/03 09:05:32;;;;;;;6.27;2.70;;;;;;;6.65;49.90;99121.84;4251892;29;20287;-81
2021/12/03 09:07:59;;;;;;;13.43;3.30;;;;;;;6.99;48.44;99123.72;4161881;29;20257;-79
2021/12/03 09:10:37;;;;;;;7.37;2.97;;;;;;;6.67;47.71;99127.78;4101157;29;21244;-79
2021/12/03 09:13:07;;;;;;;6.63;2.97;;;;;;;6.50;49.17;99128.63;4155350;29;20986;-80
2021/12/03 09:15:54;;;;;;;8.50;2.90;;;;;;;7.03;47.59;99111.88;4144150;29;20245;-81
2021/12/03 09:18:29;;;;;;;7.63;2.90;;;;;;;7.98;45.27;99128.56;4165906;29;21394;-82
2021/12/03 09:21:25;;;;;;;9.83;3.20;;;;;;;7.25;45.69;99104.41;4158819;29;20254;-84
2021/12/03 09:26:26;;;;;;;6.90;3.03;;;;;;;8.30;43.44;99129.63;4091793;29;21838;-79
2021/12/03 09:29:03;;;;;;;4.40;2.30;;;;;;;7.17;45.62;99116.59;4089078;29;20742;-79
2021/12/03 09:31:33;;;;;;;7.80;2.60;;;;;;;6.93;46.38;99113.75;4110918;29;22458;-82
2021/12/03 09:34:00;;;;;;;10.40;3.00;;;;;;;6.05;48.54;99100.44;4132427;29;20325;-76
2021/12/03 09:36:27;;;;;;;10.47;2.70;;;;;;;5.79;49.80;99100.28;4102435;29;20234;-79
2021/12/03 09:38:54;;;;;;;8.27;2.63;;;;;;;4.88;53.03;99092.97;4146896;29;20720;-81
2021/12/03 09:41:21;;;;;;;8.80;3.10;;;;;;;4.20;55.17;99085.94;4106737;29;20246;-80
2021/12/03 09:43:50;;;;;;;7.23;3.00;;;;;;;3.68;56.63;99080.03;4144672;29;20254;-80
2021/12/03 09:46:26;;;;;;;11.70;3.17;;;;;;;3.36;58.37;99083.66;4132109;29;21839;-77
2021/12/03 09:49:13;;;;;;;7.27;2.93;;;;;;;3.01;59.55;99070.09;4168578;29;20318;-80
2021/12/03 09:57:04;;;;;;;7.80;3.60;;;;;;;2.93;60.97;99061.06;4166661;29;22298;-81
2021/12/03 10:02:14;;;;;;;14.70;3.87;;;;;;;2.32;62.14;99045.19;4140557;29;20253;-79
2021/12/03 10:08:33;;;;;;;7.80;3.60;;;;;;;2.16;64.23;99043.00;4194783;29;20543;-75
2021/12/03 10:11:08;;;;;;;11.27;3.73;;;;;;;2.16;63.70;99042.19;4139124;29;20258;-77
2021/12/03 10:13:32;;;;;;;11.70;3.30;;;;;;;1.74;65.28;99042.06;4112100;29;21718;-79
2021/12/03 10:16:11;;;;;;;10.43;3.20;;;;;;;1.37;66.84;99052.84;4125260;29;20234;-76
2021/12/03 10:18:51;;;;;;;7.80;2.87;;;;;;;1.17;68.18;99051.78;4139845;29;20608;-75
2021/12/03 10:24:41;;;;;;;7.93;3.10;;;;;;;1.52;68.03;99043.75;4105981;29;21307;-74
2021/12/03 10:30:12;;;;;;;7.10;2.87;;;;;;;1.67;66.80;99044.34;4092590;29;24916;-74
2021/12/03 10:33:15;;;;;;;7.43;2.73;;;;;;;1.90;66.94;99032.00;4088550;29;20272;-78
2021/12/03 10:36:02;;;;;;;8.17;2.67;;;;;;;1.90;66.69;99029.38;4106286;29;20892;-77
2021/12/03 10:38:36;;;;;;;7.83;2.60;;;;;;;2.14;66.29;99039.66;4114936;29;20240;-77
2021/12/03 10:44:31;;;;;;;8.80;2.40;;;;;;;2.13;66.49;99018.78;4088499;29;21821;-76
2021/12/03 10:49:55;;;;;;;9.20;3.00;;;;;;;2.27;66.69;99031.59;4089079;29;21216;-76
2021/12/03 10:52:28;;;;;;;9.33;2.67;;;;;;;2.38;65.97;99033.34;4086265;29;22199;-78
2021/12/03 10:55:28;;;;;;;11.30;3.30;;;;;;;2.09;66.90;99029.53;4115823;29;20311;-76
2021/12/03 11:04:29;;;;;;;6.43;2.93;;;;;;;1.46;69.89;99047.72;4071466;29;21608;-79
2021/12/03 11:12:28;;;;;;;7.97;3.00;;;;;;;1.44;71.11;99036.50;4097275;29;20349;-75
2021/12/03 11:21:13;;;;;;;12.50;3.47;;;;;;;1.36;72.11;99048.56;4069073;29;20694;-77
2021/12/03 11:43:04;;;;;;;11.07;3.57;;;;;;;1.64;71.80;99060.34;4074111;29;20253;-75
2021/12/03 11:45:48;;;;;;;11.70;3.80;;;;;;;1.48;72.27;99058.91;4089336;29;20376;-75
2021/12/03 12:02:20;;;;;;;11.30;3.57;;;;;;;1.23;74.64;99062.63;4083908;29;20289;-77
2021/12/03 12:08:49;;;;;;;12.23;2.70;;;;;;;1.16;75.28;99058.00;4079544;29;20742;-77
2021/12/03 12:14:39;;;;;;;12.93;3.10;;;;;;;1.07;76.19;99066.56;4087354;29;20667;-77
2021/12/03 12:23:18;;;;;;;8.80;3.03;;;;;;;0.93;78.13;99059.75;4063253;29;21266;-79
2021/12/03 12:47:27;;;;;;;10.60;2.90;;;;;;;0.68;81.00;99094.81;4074534;29;21500;-77
2021/12/03 13:08:53;;;;;;;13.83;4.00;;;;;;;0.76;81.39;99102.94;4087435;29;20293;-77
2021/12/03 14:11:53;;;;;;;17.43;4.27;;;;;;;0.81;80.07;99177.56;4103274;29;20292;-80
2021/12/03 14:20:38;;;;;;;19.23;4.97;;;;;;;0.81;79.74;99182.81;4089553;29;20249;-76
2021/12/03 14:47:57;;;;;;;16.80;5.00;;;;;;;0.76;79.99;99210.28;4105728;29;22968;-80
2021/12/03 14:53:20;;;;;;;17.70;5.83;;;;;;;0.73;80.51;99216.59;4116220;29;20238;-81
2021/12/03 14:55:51;;;;;;;22.60;5.80;;;;;;;0.68;80.42;99225.72;4100976;29;20233;-83
2021/12/03 14:58:27;;;;;;;14.57;5.07;;;;;;;0.68;80.65;99228.31;4095328;29;20245;-81
2021/12/03 15:01:00;;;;;;;18.27;5.73;;;;;;;0.54;80.45;99218.84;4116819;29;20236;-84
2021/12/03 15:06:26;;;;;;;17.77;5.57;;;;;;;0.56;80.50;99236.16;4081749;29;20325;-82
2021/12/03 15:08:56;;;;;;;18.47;6.20;;;;;;;0.55;80.77;99236.25;4091368;29;20230;-81
2021/12/03 15:17:55;;;;;;;18.37;5.87;;;;;;;0.51;80.47;99237.41;4085206;29;20613;-79
2021/12/03 15:25:31;;;;;;;20.53;6.67;;;;;;;0.59;80.74;99250.78;4096373;29;20284;-84
2021/12/03 15:30:50;;;;;;;23.63;6.70;;;;;;;0.65;80.73;99260.81;4096324;29;20683;-80
2021/12/03 15:35:57;;;;;;;26.73;8.10;;;;;;;0.69;80.22;99261.44;4096564;29;20362;-81
2021/12/03 15:38:40;;;;;;;27.47;7.93;;;;;;;0.72;79.86;99253.34;4087406;29;20304;-80
2021/12/03 16:06:13;;;;;;;19.40;5.63;;;;;;;0.83;79.29;99290.91;4107566;29;22029;-81
2021/12/03 16:08:40;;;;;;;22.50;6.63;;;;;;;0.82;79.40;99294.47;4148521;29;20881;-87